createdAt,value
2023-04-14T00:01:21.237Z,99459.83
2023-04-14T00:03:50.493Z,99459.58
2023-04-14T00:06:21.691Z,99461.41
2023-04-14T00:08:50.984Z,99460.10
2023-04-14T00:11:19.977Z,99459.94
2023-04-14T00:13:48.452Z,99459.90
2023-04-14T00:16:18.414Z,99458.11
2023-04-14T00:18:46.964Z,99458.40
2023-04-14T00:21:15.441Z,99460.80
2023-04-14T00:23:47.002Z,99459.83
2023-04-14T00:26:15.784Z,99458.36
2023-04-14T00:28:44.972Z,99459.57
2023-04-14T00:31:13.757Z,99464.10
2023-04-14T00:33:42.758Z,99466.53
2023-04-14T00:36:11.200Z,99466.00
2023-04-14T00:38:40.649Z,99464.14
2023-04-14T00:41:09.018Z,99468.80
2023-04-14T00:43:37.808Z,99463.08
2023-04-14T00:46:07.363Z,99465.06
2023-04-14T00:48:36.416Z,99466.23
2023-04-14T00:51:05.545Z,99467.34
2023-04-14T00:53:35.217Z,99465.08
2023-04-14T00:56:03.909Z,99468.39
2023-04-14T00:58:32.479Z,99467.86
2023-04-14T01:01:02.228Z,99470.95
2023-04-14T01:03:32.893Z,99473.20
2023-04-14T01:06:02.020Z,99473.89
2023-04-14T01:08:30.702Z,99474.95
2023-04-14T01:11:14.265Z,99474.52
2023-04-14T01:14:01.820Z,99473.26
2023-04-14T01:16:32.721Z,99470.86
2023-04-14T01:19:05.185Z,99474.98
2023-04-14T01:21:37.596Z,99472.39
2023-04-14T01:24:21.288Z,99473.44
2023-04-14T01:26:53.369Z,99468.73
2023-04-14T01:29:51.442Z,99473.20
2023-04-14T01:32:22.595Z,99475.35
2023-04-14T01:34:53.488Z,99475.46
2023-04-14T01:37:30.455Z,99479.39
2023-04-14T01:40:11.602Z,99471.50
2023-04-14T01:42:43.405Z,99474.52
2023-04-14T01:45:34.264Z,99470.77
2023-04-14T01:48:02.963Z,99470.45
2023-04-14T01:50:31.917Z,99465.94
2023-04-14T01:53:00.528Z,99465.57
2023-04-14T01:55:29.384Z,99461.52
2023-04-14T01:57:58.691Z,99459.92
2023-04-14T02:00:27.287Z,99465.16
2023-04-14T02:02:56.877Z,99469.85
2023-04-14T02:05:25.652Z,99471.62
2023-04-14T02:07:54.144Z,99475.11
2023-04-14T02:10:22.525Z,99478.73
2023-04-14T02:12:53.872Z,99480.18
2023-04-14T02:15:42.318Z,99481.07
2023-04-14T02:18:11.019Z,99479.33
2023-04-14T02:20:45.050Z,99480.48
2023-04-14T02:23:28.655Z,99477.15
2023-04-14T02:26:12.494Z,99477.38
2023-04-14T02:28:50.397Z,99476.62
2023-04-14T02:31:21.991Z,99476.43
2023-04-14T02:33:53.833Z,99483.16
2023-04-14T02:36:28.240Z,99489.23
2023-04-14T02:38:59.970Z,99494.52
2023-04-14T02:41:29.179Z,99497.27
2023-04-14T02:44:19.248Z,99497.61
2023-04-14T02:47:07.888Z,99502.35
2023-04-14T02:49:42.807Z,99498.91
2023-04-14T02:52:12.877Z,99498.25
2023-04-14T02:54:43.197Z,99497.13
2023-04-14T02:57:14.645Z,99495.67
2023-04-14T02:59:45.709Z,99496.88
2023-04-14T03:02:19.335Z,99501.24
2023-04-14T03:04:53.710Z,99508.88
2023-04-14T03:07:30.182Z,99508.01
2023-04-14T03:09:59.276Z,99508.85
2023-04-14T03:12:30.124Z,99507.24
2023-04-14T03:14:58.715Z,99505.13
2023-04-14T03:17:27.396Z,99504.69
2023-04-14T03:19:58.115Z,99500.73
2023-04-14T03:22:28.466Z,99495.46
2023-04-14T03:24:59.154Z,99498.08
2023-04-14T03:27:28.343Z,99503.95
2023-04-14T03:29:58.795Z,99509.66
2023-04-14T03:32:37.124Z,99514.07
2023-04-14T03:35:08.463Z,99517.74
2023-04-14T03:37:39.839Z,99522.58
2023-04-14T03:40:11.576Z,99526.40
2023-04-14T03:42:44.989Z,99527.65
2023-04-14T03:45:14.571Z,99533.43
2023-04-14T03:47:44.145Z,99537.81
2023-04-14T03:50:13.368Z,99541.33
2023-04-14T03:52:41.950Z,99544.17
2023-04-14T03:55:12.674Z,99544.73
2023-04-14T03:57:44.244Z,99546.73
2023-04-14T04:00:15.587Z,99548.50
2023-04-14T04:03:06.450Z,99556.52
2023-04-14T04:05:35.603Z,99554.90
2023-04-14T04:08:04.286Z,99558.79
2023-04-14T04:10:34.098Z,99559.54
2023-04-14T04:13:03.397Z,99562.70
2023-04-14T04:15:36.841Z,99565.20
2023-04-14T04:18:07.426Z,99564.34
2023-04-14T04:20:38.047Z,99561.65
2023-04-14T04:23:07.051Z,99562.80
2023-04-14T04:25:36.663Z,99568.60
2023-04-14T04:28:12.307Z,99567.95
2023-04-14T04:30:42.006Z,99571.13
2023-04-14T04:33:12.108Z,99570.87
2023-04-14T04:35:41.378Z,99573.09
2023-04-14T04:38:11.599Z,99576.67
2023-04-14T04:40:42.508Z,99577.50
2023-04-14T04:43:22.447Z,99575.09
2023-04-14T04:45:56.987Z,99581.39
2023-04-14T04:48:26.010Z,99584.77
2023-04-14T04:50:55.867Z,99585.10
2023-04-14T04:53:24.243Z,99587.11
2023-04-14T04:55:54.666Z,99588.95
2023-04-14T04:58:23.162Z,99589.31
2023-04-14T05:00:51.855Z,99595.52
2023-04-14T05:03:21.355Z,99599.23
2023-04-14T05:05:49.732Z,99600.66
2023-04-14T05:08:18.832Z,99602.77
2023-04-14T05:10:49.252Z,99608.48
2023-04-14T05:13:19.986Z,99612.55
2023-04-14T05:15:48.710Z,99611.95
2023-04-14T05:18:21.646Z,99615.64
2023-04-14T05:20:51.365Z,99613.64
2023-04-14T05:23:19.954Z,99613.08
2023-04-14T05:25:51.446Z,99612.21
2023-04-14T05:28:20.383Z,99616.03
2023-04-14T05:30:48.907Z,99620.25
2023-04-14T05:33:18.070Z,99623.62
2023-04-14T05:35:47.671Z,99628.96
2023-04-14T05:38:16.186Z,99632.20
2023-04-14T05:40:45.462Z,99632.59
2023-04-14T05:43:17.540Z,99633.28
2023-04-14T05:45:49.210Z,99627.73
2023-04-14T05:48:19.711Z,99627.98
2023-04-14T05:50:48.868Z,99627.32
2023-04-14T05:53:17.279Z,99627.73
2023-04-14T05:55:47.813Z,99630.25
2023-04-14T05:58:16.394Z,99627.17
2023-04-14T06:00:50.417Z,99629.50
2023-04-14T06:03:33.896Z,99630.31
2023-04-14T06:06:02.927Z,99634.23
2023-04-14T06:08:31.836Z,99633.39
2023-04-14T06:11:00.708Z,99642.34
2023-04-14T06:13:31.532Z,99647.02
2023-04-14T06:16:01.178Z,99651.57
2023-04-14T06:18:29.758Z,99657.09
2023-04-14T06:20:58.982Z,99654.73
2023-04-14T06:23:27.568Z,99651.79
2023-04-14T06:25:57.532Z,99657.11
2023-04-14T06:28:27.113Z,99656.88
2023-04-14T06:30:55.727Z,99661.27
2023-04-14T06:33:24.172Z,99665.17
2023-04-14T06:35:52.586Z,99671.74
2023-04-14T06:38:22.715Z,99672.61
2023-04-14T06:40:53.208Z,99673.37
2023-04-14T06:43:22.021Z,99675.73
2023-04-14T06:45:51.257Z,99680.38
2023-04-14T06:48:19.799Z,99682.55
2023-04-14T06:50:56.148Z,99684.56
2023-04-14T06:53:25.043Z,99684.66
2023-04-14T06:55:59.714Z,99682.67
2023-04-14T06:58:31.288Z,99686.89
2023-04-14T07:01:01.267Z,99689.48
2023-04-14T07:03:31.397Z,99694.11
2023-04-14T07:06:08.158Z,99693.35
2023-04-14T07:08:38.202Z,99694.65
2023-04-14T07:11:08.811Z,99696.52
2023-04-14T07:13:37.790Z,99698.19
2023-04-14T07:16:07.938Z,99702.77
2023-04-14T07:18:36.826Z,99704.27
2023-04-14T07:21:05.498Z,99710.67
2023-04-14T07:23:37.852Z,99708.29
2023-04-14T07:26:07.405Z,99710.74
2023-04-14T07:28:35.874Z,99707.63
2023-04-14T07:31:11.060Z,99702.79
2023-04-14T07:33:40.681Z,99705.10
2023-04-14T07:36:09.794Z,99704.26
2023-04-14T07:38:38.243Z,99705.20
2023-04-14T07:41:08.087Z,99702.73
2023-04-14T07:43:36.665Z,99707.62
2023-04-14T07:46:07.879Z,99709.23
2023-04-14T07:48:37.028Z,99708.63
2023-04-14T07:51:09.693Z,99711.33
2023-04-14T07:53:42.549Z,99712.92
2023-04-14T07:56:12.393Z,99717.35
2023-04-14T07:58:43.215Z,99718.16
2023-04-14T08:01:12.211Z,99723.52
2023-04-14T08:03:43.538Z,99730.05
2023-04-14T08:06:13.688Z,99730.10
2023-04-14T08:08:43.587Z,99733.23
2023-04-14T08:11:12.182Z,99737.19
2023-04-14T08:13:41.169Z,99739.67
2023-04-14T08:16:09.590Z,99742.27
2023-04-14T08:18:40.535Z,99737.69
2023-04-14T08:21:09.800Z,99737.30
2023-04-14T08:23:39.087Z,99739.61
2023-04-14T08:26:07.992Z,99736.32
2023-04-14T08:28:37.524Z,99738.06
2023-04-14T08:31:10.867Z,99736.94
2023-04-14T08:33:40.173Z,99738.88
2023-04-14T08:36:08.787Z,99742.30
2023-04-14T08:38:41.225Z,99742.09
2023-04-14T08:41:10.111Z,99745.09
2023-04-14T08:43:39.419Z,99742.70
2023-04-14T08:46:12.543Z,99747.86
2023-04-14T08:48:42.425Z,99745.11
